Widgeon — WDJ6594 — position and weather

sailwx.info

Track history (hours):
 
Tides and Currents Weather Stations Pressure Air Temp Water Temp Dewpoint Dewpoint Depression Visibility Wind Speed Wind Dir Waves Ship Positions

Widgeon

Owner: Kirby Inland Marine LP, Houston, TX. More information available from US FCC via Universal Licensing System and Coast Guard Vessel Documentation Center.

Last reported at 2017-Nov-17 23:05 UTC. Time now 2017-Nov-18 06:21 UTC.
Position N 29°51' W 092°22'.

Length 85 m; draft 2.1 m.

Type: . MMSI: 367799340.

Date/timePositionNaut miles runAvg speedWind from/ knotsBaromVisibWave heightAir tempDewpointWater temp
2017-Nov-17 23:05N 29°51' W 092°22'1 6.3
2017-Nov-17 22:53N 29°51' W 092°20'2 6.0
2017-Nov-17 22:29N 29°50' W 092°18'2 5.0
2017-Nov-17 22:01N 29°48' W 092°16'3 6.2
2017-Nov-17 21:30N 29°47' W 092°12'3 5.5
2017-Nov-17 21:01N 29°47' W 092°09'3 6.1
2017-Nov-17 20:31N 29°48' W 092°06'3 6.2
2017-Nov-17 20:00N 29°49' W 092°02'64 5.0
2017-Nov-17 07:16N 29°32' W 090°52'1 5.3
2017-Nov-17 07:00N 29°32' W 090°50'3 5.7
2017-Nov-17 06:30N 29°32' W 090°47'2 4.0
2017-Nov-17 06:00N 29°33' W 090°45'2 4.2
2017-Nov-17 05:31N 29°34' W 090°43'2 3.3
2017-Nov-17 05:00N 29°36' W 090°43'2 3.3
2017-Nov-17 04:30N 29°36' W 090°41'2 4.9
2017-Nov-17 04:00N 29°35' W 090°38'2 4.4
2017-Nov-17 03:30N 29°35' W 090°36'13 0.3
2017-Nov-15 03:36N 29°38' W 090°21'7 4.0
2017-Nov-15 01:58N 29°33' W 090°27'2 4.8
2017-Nov-15 01:30N 29°34' W 090°29'2 4.9
2017-Nov-15 01:00N 29°34' W 090°32'2 4.8
2017-Nov-15 00:30N 29°34' W 090°35'2 4.7
2017-Nov-15 00:00N 29°35' W 090°37'2 5.0
2017-Nov-14 23:30N 29°36' W 090°40'1 2.6
2017-Nov-14 23:00N 29°36' W 090°41'1 3.0
2017-Nov-14 22:30N 29°36' W 090°43'2 4.4
2017-Nov-14 22:00N 29°34' W 090°44'2 4.8
2017-Nov-14 21:30N 29°32' W 090°46'3 5.2
2017-Nov-14 20:56N 29°32' W 090°49'60 4.6
2017-Nov-14 07:57N 29°51' W 091°55'2 5.2
2017-Nov-14 07:29N 29°50' W 091°57'3 5.3
2017-Nov-14 06:59N 29°50' W 092°00'3 5.2
2017-Nov-14 06:29N 29°49' W 092°03'3 5.1
2017-Nov-14 05:59N 29°48' W 092°06'3 5.4
2017-Nov-14 05:29N 29°47' W 092°09'2 4.5
2017-Nov-14 04:59N 29°47' W 092°11'1 2.0
2017-Nov-14 04:27N 29°47' W 092°13'2 4.2
2017-Nov-14 03:59N 29°48' W 092°15'3 5.0
2017-Nov-14 03:29N 29°49' W 092°17'2 4.6
2017-Nov-14 02:59N 29°50' W 092°19'7 4.5
2017-Nov-14 01:33N 29°53' W 092°26'0 5.1
2017-Nov-14 01:28N 29°53' W 092°27'130 4.0
2017-Nov-12 16:37N 29°32' W 094°54'1 6.8
2017-Nov-12 16:30N 29°33' W 094°55'3 6.7
2017-Nov-12 16:00N 29°36' W 094°57'3 5.0
2017-Nov-12 15:30N 29°37' W 094°59'2 3.8
2017-Nov-12 15:00N 29°37' W 095°01'0 0.1
2017-Nov-12 14:30N 29°37' W 095°01'0 0.1
2017-Nov-12 14:00N 29°37' W 095°02'0 0.0
2017-Nov-12 13:30N 29°37' W 095°02'0 0.0
2017-Nov-12 13:00N 29°37' W 095°02'0 0.0
2017-Nov-12 12:30N 29°37' W 095°02'0 0.0
2017-Nov-12 12:00N 29°37' W 095°02'0 0.0
2017-Nov-12 11:30N 29°37' W 095°02'0 0.0
2017-Nov-12 11:00N 29°37' W 095°02'0 0.0
2017-Nov-12 10:30N 29°37' W 095°02'0 0.0
2017-Nov-12 10:00N 29°37' W 095°02'0 0.0
2017-Nov-12 09:30N 29°37' W 095°02'0 0.0
2017-Nov-12 09:00N 29°37' W 095°02'0 0.0
2017-Nov-12 08:30N 29°37' W 095°02'0 0.0
2017-Nov-12 08:00N 29°37' W 095°02'0 0.0
2017-Nov-12 07:30N 29°37' W 095°02'0 0.0
2017-Nov-12 07:00N 29°37' W 095°02'0 0.0
2017-Nov-12 06:30N 29°37' W 095°02'0 0.0
2017-Nov-12 06:00N 29°37' W 095°02'0 0.0
2017-Nov-12 05:30N 29°37' W 095°02'0 0.0
2017-Nov-12 05:00N 29°37' W 095°02'0 0.0
2017-Nov-12 04:30N 29°37' W 095°02'0 0.0
2017-Nov-12 04:00N 29°37' W 095°02'0 0.0
2017-Nov-12 03:30N 29°37' W 095°02'0 0.0
2017-Nov-12 03:00N 29°37' W 095°02'0 0.0
2017-Nov-12 02:30N 29°37' W 095°02'0 0.0
2017-Nov-12 02:00N 29°37' W 095°02'1 1.5
2017-Nov-12 01:30N 29°37' W 095°01'3 5.6
2017-Nov-12 01:00N 29°37' W 094°57'3 6.3
2017-Nov-12 00:30N 29°40' W 094°59'3 6.1
2017-Nov-12 00:00N 29°42' W 095°01'3 5.4
2017-Nov-11 23:30N 29°44' W 095°03'  
Track history (hours):
 
Tides and Currents Weather Stations Pressure Air Temp Water Temp Dewpoint Dewpoint Depression Visibility Wind Speed Wind Dir Waves Ship Positions

Widgeon

Owner: Kirby Inland Marine LP, Houston, TX. More information available from US FCC via Universal Licensing System and Coast Guard Vessel Documentation Center.

Last reported at 2017-Nov-17 23:05 UTC. Time now 2017-Nov-18 06:21 UTC.
Position N 29°51' W 092°22'.

Length 85 m; draft 2.1 m.

Type: . MMSI: 367799340.

Date/timePositionNaut miles runAvg speedWind from/ knotsBaromVisibWave heightAir tempDewpointWater temp
2017-Nov-17 23:05N 29°51' W 092°22'1 6.3
2017-Nov-17 22:53N 29°51' W 092°20'2 6.0
2017-Nov-17 22:29N 29°50' W 092°18'2 5.0
2017-Nov-17 22:01N 29°48' W 092°16'3 6.2
2017-Nov-17 21:30N 29°47' W 092°12'3 5.5
2017-Nov-17 21:01N 29°47' W 092°09'3 6.1
2017-Nov-17 20:31N 29°48' W 092°06'3 6.2
2017-Nov-17 20:00N 29°49' W 092°02'64 5.0
2017-Nov-17 07:16N 29°32' W 090°52'1 5.3
2017-Nov-17 07:00N 29°32' W 090°50'3 5.7
2017-Nov-17 06:30N 29°32' W 090°47'2 4.0
2017-Nov-17 06:00N 29°33' W 090°45'2 4.2
2017-Nov-17 05:31N 29°34' W 090°43'2 3.3
2017-Nov-17 05:00N 29°36' W 090°43'2 3.3
2017-Nov-17 04:30N 29°36' W 090°41'2 4.9
2017-Nov-17 04:00N 29°35' W 090°38'2 4.4
2017-Nov-17 03:30N 29°35' W 090°36'13 0.3
2017-Nov-15 03:36N 29°38' W 090°21'7 4.0
2017-Nov-15 01:58N 29°33' W 090°27'2 4.8
2017-Nov-15 01:30N 29°34' W 090°29'2 4.9
2017-Nov-15 01:00N 29°34' W 090°32'2 4.8
2017-Nov-15 00:30N 29°34' W 090°35'2 4.7
2017-Nov-15 00:00N 29°35' W 090°37'2 5.0
2017-Nov-14 23:30N 29°36' W 090°40'1 2.6
2017-Nov-14 23:00N 29°36' W 090°41'1 3.0
2017-Nov-14 22:30N 29°36' W 090°43'2 4.4
2017-Nov-14 22:00N 29°34' W 090°44'2 4.8
2017-Nov-14 21:30N 29°32' W 090°46'3 5.2
2017-Nov-14 20:56N 29°32' W 090°49'60 4.6
2017-Nov-14 07:57N 29°51' W 091°55'2 5.2
2017-Nov-14 07:29N 29°50' W 091°57'3 5.3
2017-Nov-14 06:59N 29°50' W 092°00'3 5.2
2017-Nov-14 06:29N 29°49' W 092°03'3 5.1
2017-Nov-14 05:59N 29°48' W 092°06'3 5.4
2017-Nov-14 05:29N 29°47' W 092°09'2 4.5
2017-Nov-14 04:59N 29°47' W 092°11'1 2.0
2017-Nov-14 04:27N 29°47' W 092°13'2 4.2
2017-Nov-14 03:59N 29°48' W 092°15'3 5.0
2017-Nov-14 03:29N 29°49' W 092°17'2 4.6
2017-Nov-14 02:59N 29°50' W 092°19'7 4.5
2017-Nov-14 01:33N 29°53' W 092°26'0 5.1
2017-Nov-14 01:28N 29°53' W 092°27'130 4.0
2017-Nov-12 16:37N 29°32' W 094°54'1 6.8
2017-Nov-12 16:30N 29°33' W 094°55'3 6.7
2017-Nov-12 16:00N 29°36' W 094°57'3 5.0
2017-Nov-12 15:30N 29°37' W 094°59'2 3.8
2017-Nov-12 15:00N 29°37' W 095°01'0 0.1
2017-Nov-12 14:30N 29°37' W 095°01'0 0.1
2017-Nov-12 14:00N 29°37' W 095°02'0 0.0
2017-Nov-12 13:30N 29°37' W 095°02'0 0.0
2017-Nov-12 13:00N 29°37' W 095°02'0 0.0
2017-Nov-12 12:30N 29°37' W 095°02'0 0.0
2017-Nov-12 12:00N 29°37' W 095°02'0 0.0
2017-Nov-12 11:30N 29°37' W 095°02'0 0.0
2017-Nov-12 11:00N 29°37' W 095°02'0 0.0
2017-Nov-12 10:30N 29°37' W 095°02'0 0.0
2017-Nov-12 10:00N 29°37' W 095°02'0 0.0
2017-Nov-12 09:30N 29°37' W 095°02'0 0.0
2017-Nov-12 09:00N 29°37' W 095°02'0 0.0
2017-Nov-12 08:30N 29°37' W 095°02'0 0.0
2017-Nov-12 08:00N 29°37' W 095°02'0 0.0
2017-Nov-12 07:30N 29°37' W 095°02'0 0.0
2017-Nov-12 07:00N 29°37' W 095°02'0 0.0
2017-Nov-12 06:30N 29°37' W 095°02'0 0.0
2017-Nov-12 06:00N 29°37' W 095°02'0 0.0
2017-Nov-12 05:30N 29°37' W 095°02'0 0.0
2017-Nov-12 05:00N 29°37' W 095°02'0 0.0
2017-Nov-12 04:30N 29°37' W 095°02'0 0.0
2017-Nov-12 04:00N 29°37' W 095°02'0 0.0
2017-Nov-12 03:30N 29°37' W 095°02'0 0.0
2017-Nov-12 03:00N 29°37' W 095°02'0 0.0
2017-Nov-12 02:30N 29°37' W 095°02'0 0.0
2017-Nov-12 02:00N 29°37' W 095°02'1 1.5
2017-Nov-12 01:30N 29°37' W 095°01'3 5.6
2017-Nov-12 01:00N 29°37' W 094°57'3 6.3
2017-Nov-12 00:30N 29°40' W 094°59'3 6.1
2017-Nov-12 00:00N 29°42' W 095°01'3 5.4
2017-Nov-11 23:30N 29°44' W 095°03'  

Dump ship's entire track history